Terminal Aerodrome Forecast
Issued by NWS Topeka, KS

Home | Current Version | Previous Version | Graphics & Text | Print | Product List | Glossary On
Versions: 1 2 3 4 5 6 7 8 9 10 11 12 13 14 15 16 17 18 19 20 21 22 23 24 25 26
000
FTUS43 KTOP 291000 AAB
TAFTOP
TAF AMD
KTOP 291027Z 2910/3006 15007KT P6SM VCTS FEW005 SCT030CB OVC100
     FM291400 20008KT P6SM BKN035
     FM292000 21008KT P6SM VCTS BKN030CB=

USA.gov is the U.S. government's official web portal to all federal, state and local government web resources and services.